EJU63PL LFBO-GMMX
Flight info
| Callsign | EJU63PL |
|---|---|
| Flight time | 2h 18m |
| Altitude | 35000 |
| Route | GAUDE DCT TIVLI DCT ELSAP DCT ZAR DCT EXEMU DCT PISUS DCT EDIMU DCT ADUXO DCT NUSGO DCT OBIBO DCT NASOS DCT ANZAN DCT BLN DCT MGA DCT PIMOS DCT GALTO UN869 MABAP |
| Aircraft | A320/M-SDE3FGHIRWY/LB1 |
Departure
| Time | 2026-04-28 08:13 |
|---|---|
| Airport | Toulouse-Blagnac Airport (LFBO) |
Arrival
| Time | 2026-04-28 10:32 |
|---|---|
| Airport | Marrakesh Menara Airport (GMMX) |
| Time | Latitude | Longitude | Altitude | Speed | Heading |
|---|---|---|---|---|---|
| 2026-04-28 07:56 | 43.63306 | 1.36956 | 494 ft | 0 kts | 131° |
| 2026-04-28 08:01 | 43.63314 | 1.36945 | 485 ft | 2 kts | 131° |
| 2026-04-28 08:01 | 43.63325 | 1.36927 | 489 ft | 2 kts | 129° |
| 2026-04-28 08:01 | 43.63335 | 1.36908 | 483 ft | 2 kts | 117° |
| 2026-04-28 08:02 | 43.63342 | 1.36887 | 486 ft | 2 kts | 117° |
| 2026-04-28 08:02 | 43.63350 | 1.36865 | 485 ft | 2 kts | 112° |
| 2026-04-28 08:02 | 43.63357 | 1.36843 | 483 ft | 2 kts | 115° |
| 2026-04-28 08:02 | 43.63367 | 1.36824 | 486 ft | 2 kts | 143° |
| 2026-04-28 08:03 | 43.63378 | 1.36813 | 484 ft | 0 kts | 143° |
| 2026-04-28 08:04 | 43.63363 | 1.36826 | 485 ft | 5 kts | 155° |
| 2026-04-28 08:04 | 43.63338 | 1.36814 | 486 ft | 3 kts | 213° |
| 2026-04-28 08:04 | 43.63327 | 1.36797 | 485 ft | 2 kts | 234° |
| 2026-04-28 08:04 | 43.63313 | 1.36771 | 488 ft | 6 kts | 233° |
| 2026-04-28 08:05 | 43.63282 | 1.36706 | 488 ft | 8 kts | 242° |
| 2026-04-28 08:05 | 43.63257 | 1.36643 | 489 ft | 7 kts | 241° |
| 2026-04-28 08:05 | 43.63265 | 1.36563 | 487 ft | 12 kts | 314° |
| 2026-04-28 08:05 | 43.63345 | 1.36481 | 494 ft | 16 kts | 323° |
| 2026-04-28 08:06 | 43.63439 | 1.36382 | 492 ft | 18 kts | 323° |
| 2026-04-28 08:06 | 43.63541 | 1.36278 | 491 ft | 19 kts | 323° |
| 2026-04-28 08:06 | 43.63649 | 1.36165 | 488 ft | 20 kts | 323° |
| 2026-04-28 08:06 | 43.63762 | 1.36047 | 494 ft | 17 kts | 323° |
| 2026-04-28 08:07 | 43.63821 | 1.35964 | 488 ft | 10 kts | 273° |
| 2026-04-28 08:07 | 43.63795 | 1.35895 | 488 ft | 0 kts | 232° |
| 2026-04-28 08:11 | 43.63792 | 1.35889 | 483 ft | 3 kts | 232° |
| 2026-04-28 08:12 | 43.63771 | 1.35852 | 491 ft | 6 kts | 232° |
| 2026-04-28 08:12 | 43.63750 | 1.35814 | 489 ft | 4 kts | 232° |
| 2026-04-28 08:12 | 43.63735 | 1.35787 | 494 ft | 3 kts | 226° |
| 2026-04-28 08:12 | 43.63716 | 1.35787 | 490 ft | 5 kts | 157° |
| 2026-04-28 08:13 | 43.63548 | 1.35964 | 488 ft | 66 kts | 143° |
| 2026-04-28 08:13 | 43.63001 | 1.36532 | 492 ft | 128 kts | 143° |
| 2026-04-28 08:13 | 43.62151 | 1.37413 | 543 ft | 170 kts | 143° |
| 2026-04-28 08:13 | 43.61227 | 1.38377 | 1225 ft | 166 kts | 144° |
| 2026-04-28 08:14 | 43.60290 | 1.39310 | 1838 ft | 166 kts | 144° |
| 2026-04-28 08:14 | 43.59341 | 1.40227 | 2300 ft | 167 kts | 149° |
| 2026-04-28 08:14 | 43.58236 | 1.40695 | 2782 ft | 169 kts | 182° |
| 2026-04-28 08:14 | 43.57132 | 1.40213 | 3250 ft | 173 kts | 218° |
| 2026-04-28 08:15 | 43.56366 | 1.38829 | 3481 ft | 194 kts | 241° |
| 2026-04-28 08:15 | 43.55681 | 1.37093 | 3693 ft | 218 kts | 241° |
| 2026-04-28 08:15 | 43.54913 | 1.35157 | 3996 ft | 242 kts | 241° |
| 2026-04-28 08:15 | 43.54062 | 1.33029 | 4363 ft | 266 kts | 240° |
| 2026-04-28 08:16 | 43.53124 | 1.30699 | 4726 ft | 290 kts | 240° |
| 2026-04-28 08:16 | 43.52102 | 1.28170 | 5040 ft | 314 kts | 240° |
| 2026-04-28 08:16 | 43.51015 | 1.25477 | 5296 ft | 337 kts | 240° |
| 2026-04-28 08:16 | 43.49835 | 1.22557 | 5486 ft | 360 kts | 240° |
| 2026-04-28 08:17 | 43.48597 | 1.19498 | 5982 ft | 369 kts | 240° |
| 2026-04-28 08:17 | 43.47337 | 1.16399 | 6668 ft | 372 kts | 240° |
| 2026-04-28 08:17 | 43.46070 | 1.13277 | 7401 ft | 375 kts | 240° |
| 2026-04-28 08:17 | 43.44796 | 1.10132 | 8171 ft | 378 kts | 241° |
| 2026-04-28 08:18 | 43.43509 | 1.06967 | 8954 ft | 380 kts | 240° |
| 2026-04-28 08:18 | 43.42211 | 1.03784 | 9720 ft | 383 kts | 240° |
| 2026-04-28 08:18 | 43.40899 | 1.00577 | 10329 ft | 387 kts | 240° |
| 2026-04-28 08:18 | 43.39572 | 0.97342 | 10933 ft | 390 kts | 240° |
| 2026-04-28 08:19 | 43.38236 | 0.94086 | 11536 ft | 393 kts | 240° |
| 2026-04-28 08:19 | 43.36887 | 0.90801 | 12144 ft | 396 kts | 240° |
| 2026-04-28 08:19 | 43.35531 | 0.87493 | 12736 ft | 399 kts | 240° |
| 2026-04-28 08:19 | 43.34167 | 0.84159 | 13335 ft | 402 kts | 240° |
| 2026-04-28 08:20 | 43.32791 | 0.80802 | 13917 ft | 405 kts | 240° |
| 2026-04-28 08:20 | 43.31401 | 0.77421 | 14420 ft | 408 kts | 240° |
| 2026-04-28 08:20 | 43.30001 | 0.74025 | 14911 ft | 411 kts | 240° |
| 2026-04-28 08:20 | 43.28601 | 0.70628 | 15715 ft | 402 kts | 240° |
| 2026-04-28 08:21 | 43.27256 | 0.67364 | 17010 ft | 385 kts | 240° |
| 2026-04-28 08:21 | 43.25947 | 0.64189 | 17902 ft | 381 kts | 240° |
| 2026-04-28 08:21 | 43.24638 | 0.61023 | 18510 ft | 383 kts | 240° |
| 2026-04-28 08:21 | 43.23317 | 0.57839 | 19025 ft | 385 kts | 240° |
| 2026-04-28 08:22 | 43.21986 | 0.54639 | 19535 ft | 388 kts | 240° |
| 2026-04-28 08:22 | 43.20647 | 0.51416 | 20036 ft | 390 kts | 240° |
| 2026-04-28 08:22 | 43.19300 | 0.48175 | 20548 ft | 393 kts | 240° |
| 2026-04-28 08:22 | 43.17943 | 0.44915 | 21054 ft | 395 kts | 240° |
| 2026-04-28 08:23 | 43.16577 | 0.41640 | 21558 ft | 397 kts | 240° |
| 2026-04-28 08:23 | 43.15204 | 0.38347 | 22032 ft | 399 kts | 240° |
| 2026-04-28 08:23 | 43.13827 | 0.35038 | 22508 ft | 401 kts | 241° |
| 2026-04-28 08:23 | 43.12439 | 0.31714 | 22979 ft | 403 kts | 241° |
| 2026-04-28 08:24 | 43.11045 | 0.28376 | 23439 ft | 405 kts | 241° |
| 2026-04-28 08:24 | 43.09645 | 0.25031 | 23929 ft | 404 kts | 241° |
| 2026-04-28 08:24 | 43.08252 | 0.21712 | 24556 ft | 397 kts | 240° |
| 2026-04-28 08:24 | 43.06889 | 0.18471 | 25253 ft | 391 kts | 240° |
| 2026-04-28 08:25 | 43.05534 | 0.15253 | 25738 ft | 391 kts | 240° |
| 2026-04-28 08:25 | 43.04191 | 0.12065 | 26417 ft | 384 kts | 240° |
| 2026-04-28 08:25 | 43.02860 | 0.08907 | 26931 ft | 383 kts | 240° |
| 2026-04-28 08:26 | 43.00195 | 0.02584 | 27706 ft | 386 kts | 240° |
| 2026-04-28 08:26 | 42.98851 | -0.00604 | 28104 ft | 388 kts | 240° |
| 2026-04-28 08:26 | 42.97501 | -0.03799 | 28486 ft | 389 kts | 240° |
| 2026-04-28 08:26 | 42.96143 | -0.07004 | 28894 ft | 390 kts | 240° |
| 2026-04-28 08:27 | 42.94778 | -0.10214 | 29303 ft | 391 kts | 240° |
| 2026-04-28 08:27 | 42.93412 | -0.13421 | 29720 ft | 391 kts | 240° |
| 2026-04-28 08:27 | 42.92043 | -0.16632 | 30142 ft | 391 kts | 240° |
| 2026-04-28 08:27 | 42.90676 | -0.19838 | 30507 ft | 391 kts | 240° |
| 2026-04-28 08:28 | 42.89313 | -0.23041 | 30870 ft | 390 kts | 240° |
| 2026-04-28 08:28 | 42.87951 | -0.26239 | 31238 ft | 390 kts | 240° |
| 2026-04-28 08:28 | 42.86589 | -0.29430 | 31614 ft | 389 kts | 239° |
| 2026-04-28 08:28 | 42.85226 | -0.32619 | 31917 ft | 390 kts | 239° |
| 2026-04-28 08:29 | 42.83854 | -0.35824 | 32174 ft | 393 kts | 239° |
| 2026-04-28 08:29 | 42.82384 | -0.38967 | 32435 ft | 395 kts | 233° |
| 2026-04-28 08:29 | 42.80562 | -0.41776 | 32699 ft | 397 kts | 224° |
| 2026-04-28 08:29 | 42.78437 | -0.44137 | 32828 ft | 403 kts | 215° |
| 2026-04-28 08:30 | 42.75990 | -0.46026 | 32985 ft | 408 kts | 206° |
| 2026-04-28 08:30 | 42.70601 | -0.48881 | 33033 ft | 422 kts | 203° |
| 2026-04-28 08:31 | 42.65041 | -0.51794 | 33029 ft | 434 kts | 203° |
| 2026-04-28 08:31 | 42.59368 | -0.54781 | 33029 ft | 439 kts | 203° |
| 2026-04-28 08:32 | 42.53667 | -0.57777 | 33027 ft | 440 kts | 203° |
| 2026-04-28 08:32 | 42.47959 | -0.60764 | 33027 ft | 440 kts | 203° |
| 2026-04-28 08:33 | 42.42244 | -0.63740 | 33025 ft | 440 kts | 202° |
| 2026-04-28 08:33 | 42.36531 | -0.66713 | 33010 ft | 440 kts | 202° |
| 2026-04-28 08:34 | 42.31790 | -0.69182 | 33014 ft | 436 kts | 202° |
| 2026-04-28 08:34 | 42.26134 | -0.72118 | 33016 ft | 435 kts | 202° |
| 2026-04-28 08:35 | 42.20521 | -0.75015 | 33019 ft | 430 kts | 202° |
| 2026-04-28 08:35 | 42.14936 | -0.77902 | 33020 ft | 431 kts | 202° |
| 2026-04-28 08:36 | 42.09340 | -0.80802 | 33019 ft | 431 kts | 202° |
| 2026-04-28 08:36 | 42.03736 | -0.83686 | 33015 ft | 431 kts | 202° |
| 2026-04-28 08:37 | 41.98135 | -0.86563 | 33011 ft | 431 kts | 202° |
| 2026-04-28 08:37 | 41.92529 | -0.89438 | 33009 ft | 431 kts | 202° |
| 2026-04-28 08:38 | 41.86923 | -0.92314 | 33011 ft | 431 kts | 202° |
| 2026-04-28 08:38 | 41.81310 | -0.95180 | 33017 ft | 431 kts | 202° |
| 2026-04-28 08:39 | 41.75697 | -0.98037 | 33014 ft | 432 kts | 202° |
| 2026-04-28 08:39 | 41.70082 | -1.00897 | 33016 ft | 432 kts | 202° |
| 2026-04-28 08:40 | 41.64609 | -1.04177 | 33015 ft | 430 kts | 213° |
| 2026-04-28 08:40 | 41.59705 | -1.08676 | 33019 ft | 430 kts | 215° |
| 2026-04-28 08:41 | 41.54742 | -1.13250 | 33014 ft | 431 kts | 215° |
| 2026-04-28 08:41 | 41.49802 | -1.17778 | 33021 ft | 431 kts | 215° |
| 2026-04-28 08:42 | 41.44880 | -1.22268 | 33018 ft | 432 kts | 214° |
| 2026-04-28 08:42 | 41.39923 | -1.26791 | 33017 ft | 432 kts | 215° |
| 2026-04-28 08:43 | 41.34964 | -1.31309 | 33019 ft | 432 kts | 214° |
| 2026-04-28 08:43 | 41.29998 | -1.35829 | 33013 ft | 432 kts | 215° |
| 2026-04-28 08:44 | 41.25028 | -1.40343 | 33019 ft | 432 kts | 214° |
| 2026-04-28 08:44 | 41.20065 | -1.44853 | 33021 ft | 432 kts | 215° |
| 2026-04-28 08:45 | 41.15099 | -1.49360 | 33023 ft | 432 kts | 214° |
| 2026-04-28 08:45 | 41.10128 | -1.53850 | 33026 ft | 432 kts | 214° |
| 2026-04-28 08:46 | 41.05154 | -1.58340 | 33030 ft | 433 kts | 214° |
| 2026-04-28 08:46 | 41.00169 | -1.62821 | 33030 ft | 433 kts | 214° |
| 2026-04-28 08:47 | 40.95216 | -1.67272 | 33031 ft | 433 kts | 214° |
| 2026-04-28 08:47 | 40.90228 | -1.71752 | 33029 ft | 433 kts | 214° |
| 2026-04-28 08:48 | 40.85237 | -1.76218 | 33025 ft | 433 kts | 215° |
| 2026-04-28 08:48 | 40.80239 | -1.80676 | 33028 ft | 433 kts | 215° |
| 2026-04-28 08:49 | 40.75241 | -1.85131 | 33029 ft | 433 kts | 215° |
| 2026-04-28 08:49 | 40.70241 | -1.89580 | 33031 ft | 434 kts | 215° |
| 2026-04-28 08:50 | 40.65241 | -1.94030 | 33039 ft | 434 kts | 215° |
| 2026-04-28 08:50 | 40.60234 | -1.98473 | 33043 ft | 434 kts | 214° |
| 2026-04-28 08:51 | 40.55229 | -2.02898 | 33037 ft | 433 kts | 214° |
| 2026-04-28 08:51 | 40.50256 | -2.07283 | 33037 ft | 433 kts | 214° |
| 2026-04-28 08:52 | 40.45243 | -2.11701 | 33031 ft | 433 kts | 214° |
| 2026-04-28 08:52 | 40.40237 | -2.16114 | 33030 ft | 434 kts | 214° |
| 2026-04-28 08:53 | 40.35225 | -2.20519 | 33031 ft | 434 kts | 214° |
| 2026-04-28 08:53 | 40.30216 | -2.24918 | 33031 ft | 433 kts | 214° |
| 2026-04-28 08:54 | 40.25196 | -2.29306 | 33039 ft | 434 kts | 214° |
| 2026-04-28 08:54 | 40.20180 | -2.33688 | 33031 ft | 433 kts | 214° |
| 2026-04-28 08:55 | 40.15198 | -2.38036 | 33032 ft | 433 kts | 214° |
| 2026-04-28 08:55 | 40.10185 | -2.42397 | 33035 ft | 433 kts | 214° |
| 2026-04-28 08:56 | 40.05173 | -2.46754 | 33035 ft | 432 kts | 214° |
| 2026-04-28 08:56 | 40.00165 | -2.51105 | 33031 ft | 432 kts | 214° |
| 2026-04-28 08:57 | 39.95153 | -2.55439 | 33032 ft | 432 kts | 214° |
| 2026-04-28 08:57 | 39.90139 | -2.59765 | 33033 ft | 432 kts | 214° |
| 2026-04-28 08:58 | 39.85128 | -2.64090 | 33031 ft | 432 kts | 214° |
| 2026-04-28 08:58 | 39.80118 | -2.68413 | 33039 ft | 432 kts | 214° |
| 2026-04-28 08:59 | 39.75111 | -2.72718 | 33036 ft | 431 kts | 214° |
| 2026-04-28 08:59 | 39.70136 | -2.76977 | 33034 ft | 431 kts | 214° |
| 2026-04-28 09:00 | 39.65103 | -2.81290 | 33032 ft | 430 kts | 214° |
| 2026-04-28 09:00 | 39.60140 | -2.85541 | 33030 ft | 430 kts | 214° |
| 2026-04-28 09:01 | 39.55137 | -2.89811 | 33027 ft | 430 kts | 214° |
| 2026-04-28 09:01 | 39.50111 | -2.94100 | 33015 ft | 430 kts | 214° |
| 2026-04-28 09:02 | 39.45146 | -2.98330 | 33012 ft | 430 kts | 214° |
| 2026-04-28 09:02 | 39.40104 | -3.02478 | 33007 ft | 430 kts | 208° |
| 2026-04-28 09:03 | 39.34550 | -3.05382 | 33010 ft | 431 kts | 201° |
| 2026-04-28 09:03 | 39.28931 | -3.08115 | 32991 ft | 432 kts | 201° |
| 2026-04-28 09:04 | 39.23306 | -3.10860 | 32986 ft | 432 kts | 201° |
| 2026-04-28 09:04 | 39.17679 | -3.13595 | 32989 ft | 432 kts | 201° |
| 2026-04-28 09:05 | 39.12047 | -3.16320 | 32986 ft | 432 kts | 201° |
| 2026-04-28 09:05 | 39.06408 | -3.19038 | 32980 ft | 432 kts | 201° |
| 2026-04-28 09:06 | 39.00771 | -3.21754 | 32973 ft | 433 kts | 201° |
| 2026-04-28 09:06 | 38.95133 | -3.24482 | 32973 ft | 433 kts | 201° |
| 2026-04-28 09:07 | 38.89490 | -3.27208 | 32973 ft | 433 kts | 201° |
| 2026-04-28 09:07 | 38.83884 | -3.29901 | 32964 ft | 433 kts | 201° |
| 2026-04-28 09:08 | 38.78223 | -3.32602 | 32959 ft | 434 kts | 201° |
| 2026-04-28 09:08 | 38.72551 | -3.35302 | 32961 ft | 435 kts | 201° |
| 2026-04-28 09:09 | 38.66874 | -3.38013 | 32946 ft | 436 kts | 201° |
| 2026-04-28 09:09 | 38.61166 | -3.40738 | 32939 ft | 439 kts | 201° |
| 2026-04-28 09:10 | 38.55425 | -3.43472 | 32937 ft | 442 kts | 201° |
| 2026-04-28 09:10 | 38.49651 | -3.46221 | 32945 ft | 442 kts | 201° |
| 2026-04-28 09:11 | 38.43884 | -3.48955 | 32949 ft | 442 kts | 201° |
| 2026-04-28 09:11 | 38.38114 | -3.51684 | 32946 ft | 442 kts | 201° |
| 2026-04-28 09:12 | 38.32342 | -3.54408 | 32942 ft | 442 kts | 201° |
| 2026-04-28 09:12 | 38.26570 | -3.57137 | 32943 ft | 443 kts | 201° |
| 2026-04-28 09:13 | 38.20831 | -3.59843 | 32942 ft | 443 kts | 201° |
| 2026-04-28 09:13 | 38.15053 | -3.62558 | 32943 ft | 443 kts | 201° |
| 2026-04-28 09:14 | 38.09371 | -3.65592 | 32938 ft | 443 kts | 205° |
| 2026-04-28 09:14 | 38.03775 | -3.68896 | 32934 ft | 444 kts | 205° |
| 2026-04-28 09:15 | 37.98168 | -3.72173 | 32934 ft | 444 kts | 205° |
| 2026-04-28 09:15 | 37.92523 | -3.75360 | 32934 ft | 444 kts | 204° |
| 2026-04-28 09:16 | 37.86869 | -3.78517 | 32927 ft | 444 kts | 204° |
| 2026-04-28 09:16 | 37.81209 | -3.81684 | 32925 ft | 445 kts | 204° |
| 2026-04-28 09:17 | 37.75540 | -3.84876 | 32927 ft | 446 kts | 204° |
| 2026-04-28 09:17 | 37.69908 | -3.88040 | 32927 ft | 446 kts | 204° |
| 2026-04-28 09:18 | 37.64233 | -3.91218 | 32923 ft | 446 kts | 204° |
| 2026-04-28 09:18 | 37.58551 | -3.94392 | 32919 ft | 447 kts | 204° |
| 2026-04-28 09:19 | 37.52856 | -3.97563 | 32921 ft | 448 kts | 204° |
| 2026-04-28 09:19 | 37.47147 | -4.00738 | 32924 ft | 449 kts | 204° |
| 2026-04-28 09:20 | 37.41434 | -4.03910 | 32925 ft | 449 kts | 204° |
| 2026-04-28 09:20 | 37.35717 | -4.07084 | 32922 ft | 450 kts | 204° |
| 2026-04-28 09:21 | 37.29978 | -4.10264 | 32924 ft | 451 kts | 204° |
| 2026-04-28 09:21 | 37.25201 | -4.12900 | 32934 ft | 452 kts | 204° |
| 2026-04-28 09:22 | 37.19446 | -4.16082 | 32936 ft | 452 kts | 204° |
| 2026-04-28 09:22 | 37.13691 | -4.19265 | 32941 ft | 452 kts | 204° |
| 2026-04-28 09:23 | 37.07936 | -4.22428 | 32946 ft | 452 kts | 204° |
| 2026-04-28 09:23 | 37.02183 | -4.25592 | 32951 ft | 451 kts | 204° |
| 2026-04-28 09:24 | 36.96432 | -4.28739 | 32953 ft | 451 kts | 204° |
| 2026-04-28 09:24 | 36.90687 | -4.31883 | 32954 ft | 451 kts | 204° |
| 2026-04-28 09:25 | 36.84923 | -4.35034 | 32944 ft | 453 kts | 204° |
| 2026-04-28 09:25 | 36.79318 | -4.38630 | 32948 ft | 454 kts | 213° |
| 2026-04-28 09:26 | 36.73999 | -4.42894 | 32955 ft | 455 kts | 213° |
| 2026-04-28 09:26 | 36.68656 | -4.47129 | 32956 ft | 455 kts | 213° |
| 2026-04-28 09:27 | 36.60628 | -4.53485 | 32959 ft | 456 kts | 213° |
| 2026-04-28 09:27 | 36.55267 | -4.57727 | 32937 ft | 457 kts | 213° |
| 2026-04-28 09:28 | 36.49893 | -4.61975 | 32938 ft | 458 kts | 213° |
| 2026-04-28 09:28 | 36.44510 | -4.66224 | 32948 ft | 459 kts | 213° |
| 2026-04-28 09:29 | 36.39119 | -4.70471 | 32956 ft | 459 kts | 213° |
| 2026-04-28 09:29 | 36.33722 | -4.74710 | 32970 ft | 459 kts | 213° |
| 2026-04-28 09:30 | 36.28327 | -4.78942 | 32970 ft | 459 kts | 213° |
| 2026-04-28 09:30 | 36.22930 | -4.83176 | 32980 ft | 459 kts | 213° |
| 2026-04-28 09:31 | 36.17531 | -4.87399 | 32980 ft | 459 kts | 212° |
| 2026-04-28 09:31 | 36.12123 | -4.91617 | 32994 ft | 459 kts | 213° |
| 2026-04-28 09:32 | 36.06738 | -4.95880 | 32989 ft | 459 kts | 213° |
| 2026-04-28 09:32 | 36.01362 | -5.00156 | 32986 ft | 460 kts | 213° |
| 2026-04-28 09:33 | 35.95977 | -5.04419 | 32980 ft | 460 kts | 213° |
| 2026-04-28 09:33 | 35.90615 | -5.08647 | 32976 ft | 460 kts | 213° |
| 2026-04-28 09:34 | 35.85210 | -5.12883 | 32969 ft | 460 kts | 212° |
| 2026-04-28 09:34 | 35.79891 | -5.17271 | 32957 ft | 460 kts | 216° |
| 2026-04-28 09:35 | 35.74794 | -5.22036 | 32947 ft | 460 kts | 218° |
| 2026-04-28 09:35 | 35.69743 | -5.26872 | 32942 ft | 460 kts | 218° |
| 2026-04-28 09:36 | 35.64645 | -5.31623 | 32950 ft | 460 kts | 217° |
| 2026-04-28 09:36 | 35.59510 | -5.36310 | 32954 ft | 459 kts | 217° |
| 2026-04-28 09:37 | 35.54383 | -5.40986 | 32960 ft | 458 kts | 217° |
| 2026-04-28 09:37 | 35.49274 | -5.45651 | 32950 ft | 458 kts | 217° |
| 2026-04-28 09:38 | 35.44161 | -5.50318 | 32946 ft | 457 kts | 217° |
| 2026-04-28 09:38 | 35.39059 | -5.54983 | 32938 ft | 457 kts | 217° |
| 2026-04-28 09:39 | 35.33984 | -5.59604 | 32923 ft | 457 kts | 217° |
| 2026-04-28 09:39 | 35.28924 | -5.64198 | 32925 ft | 448 kts | 217° |
| 2026-04-28 09:40 | 35.23955 | -5.68706 | 32926 ft | 444 kts | 216° |
| 2026-04-28 09:40 | 35.19006 | -5.73189 | 32929 ft | 441 kts | 216° |
| 2026-04-28 09:41 | 35.14088 | -5.77641 | 32934 ft | 439 kts | 216° |
| 2026-04-28 09:41 | 35.09186 | -5.82082 | 32924 ft | 439 kts | 216° |
| 2026-04-28 09:42 | 35.04274 | -5.86519 | 32924 ft | 439 kts | 216° |
| 2026-04-28 09:42 | 34.99352 | -5.90940 | 32927 ft | 439 kts | 216° |
| 2026-04-28 09:43 | 34.94427 | -5.95361 | 32920 ft | 439 kts | 216° |
| 2026-04-28 09:43 | 34.89467 | -5.99817 | 32923 ft | 447 kts | 216° |
| 2026-04-28 09:44 | 34.84446 | -6.04312 | 32923 ft | 448 kts | 216° |
| 2026-04-28 09:44 | 34.79446 | -6.08784 | 32916 ft | 448 kts | 216° |
| 2026-04-28 09:45 | 34.74442 | -6.13255 | 32923 ft | 445 kts | 216° |
| 2026-04-28 09:45 | 34.69471 | -6.17698 | 32920 ft | 443 kts | 216° |
| 2026-04-28 09:46 | 34.64502 | -6.22128 | 32915 ft | 443 kts | 216° |
| 2026-04-28 09:46 | 34.59526 | -6.26555 | 32908 ft | 443 kts | 216° |
| 2026-04-28 09:47 | 34.54547 | -6.30969 | 32911 ft | 443 kts | 216° |
| 2026-04-28 09:47 | 34.49569 | -6.35388 | 32909 ft | 443 kts | 216° |
| 2026-04-28 09:48 | 34.44600 | -6.39795 | 32921 ft | 442 kts | 216° |
| 2026-04-28 09:48 | 34.39635 | -6.44190 | 32920 ft | 442 kts | 216° |
| 2026-04-28 09:49 | 34.34665 | -6.48571 | 32938 ft | 442 kts | 216° |
| 2026-04-28 09:49 | 34.29707 | -6.52943 | 32917 ft | 441 kts | 216° |
| 2026-04-28 09:50 | 34.24782 | -6.57273 | 32931 ft | 440 kts | 216° |
| 2026-04-28 09:50 | 34.19873 | -6.61588 | 32918 ft | 429 kts | 216° |
| 2026-04-28 09:51 | 34.15084 | -6.65794 | 32922 ft | 424 kts | 216° |
| 2026-04-28 09:51 | 34.10375 | -6.69923 | 32923 ft | 412 kts | 216° |
| 2026-04-28 09:52 | 34.05739 | -6.73968 | 32920 ft | 410 kts | 216° |
| 2026-04-28 09:52 | 34.01152 | -6.78074 | 32915 ft | 414 kts | 225° |
| 2026-04-28 09:53 | 33.97395 | -6.83322 | 32917 ft | 413 kts | 230° |
| 2026-04-28 09:53 | 33.93743 | -6.88669 | 32917 ft | 413 kts | 230° |
| 2026-04-28 09:54 | 33.90102 | -6.94032 | 32923 ft | 414 kts | 230° |
| 2026-04-28 09:54 | 33.86459 | -6.99394 | 32935 ft | 414 kts | 230° |
| 2026-04-28 09:55 | 33.82815 | -7.04752 | 32938 ft | 414 kts | 230° |
| 2026-04-28 09:55 | 33.79197 | -7.10069 | 32929 ft | 414 kts | 230° |
| 2026-04-28 09:56 | 33.75550 | -7.15423 | 32940 ft | 413 kts | 230° |
| 2026-04-28 09:56 | 33.71468 | -7.20216 | 32940 ft | 411 kts | 215° |
| 2026-04-28 09:57 | 33.66784 | -7.24154 | 32946 ft | 411 kts | 214° |
| 2026-04-28 09:57 | 33.62076 | -7.28051 | 32942 ft | 411 kts | 214° |
| 2026-04-28 09:58 | 33.57363 | -7.31946 | 32933 ft | 412 kts | 214° |
| 2026-04-28 09:58 | 33.52646 | -7.35841 | 32962 ft | 411 kts | 214° |
| 2026-04-28 09:59 | 33.47959 | -7.39706 | 32985 ft | 407 kts | 214° |
| 2026-04-28 09:59 | 33.43337 | -7.43506 | 32982 ft | 404 kts | 214° |
| 2026-04-28 10:00 | 33.38705 | -7.47293 | 32988 ft | 402 kts | 214° |
| 2026-04-28 10:00 | 33.34097 | -7.51057 | 32966 ft | 401 kts | 214° |
| 2026-04-28 10:01 | 33.29497 | -7.54811 | 32965 ft | 400 kts | 214° |
| 2026-04-28 10:01 | 33.24904 | -7.58555 | 32961 ft | 400 kts | 214° |
| 2026-04-28 10:02 | 33.20311 | -7.62297 | 32958 ft | 400 kts | 214° |
| 2026-04-28 10:02 | 33.15716 | -7.66038 | 32957 ft | 400 kts | 214° |
| 2026-04-28 10:03 | 33.11114 | -7.69781 | 32961 ft | 400 kts | 214° |
| 2026-04-28 10:03 | 33.06508 | -7.73524 | 32962 ft | 400 kts | 214° |
| 2026-04-28 10:04 | 33.01901 | -7.77265 | 32965 ft | 401 kts | 214° |
| 2026-04-28 10:04 | 32.97295 | -7.81001 | 32964 ft | 401 kts | 214° |
| 2026-04-28 10:05 | 32.92686 | -7.84737 | 32964 ft | 400 kts | 214° |
| 2026-04-28 10:05 | 32.88103 | -7.88437 | 32965 ft | 400 kts | 214° |
| 2026-04-28 10:06 | 32.83488 | -7.92140 | 32965 ft | 400 kts | 214° |
| 2026-04-28 10:06 | 32.81174 | -7.93995 | 32835 ft | 401 kts | 214° |
| 2026-04-28 10:06 | 32.78863 | -7.95849 | 32569 ft | 401 kts | 214° |
| 2026-04-28 10:07 | 32.76528 | -7.97670 | 32307 ft | 401 kts | 209° |
| 2026-04-28 10:07 | 32.73943 | -7.98913 | 31926 ft | 401 kts | 198° |
| 2026-04-28 10:07 | 32.71267 | -7.99867 | 31227 ft | 403 kts | 197° |
| 2026-04-28 10:07 | 32.69476 | -8.00483 | 30771 ft | 404 kts | 197° |
| 2026-04-28 10:08 | 32.66762 | -8.01394 | 30088 ft | 406 kts | 196° |
| 2026-04-28 10:08 | 32.64035 | -8.02297 | 29169 ft | 410 kts | 196° |
| 2026-04-28 10:08 | 32.61281 | -8.03210 | 28404 ft | 411 kts | 197° |
| 2026-04-28 10:08 | 32.58537 | -8.04127 | 27759 ft | 409 kts | 197° |
| 2026-04-28 10:09 | 32.55810 | -8.05046 | 27160 ft | 406 kts | 197° |
| 2026-04-28 10:09 | 32.53101 | -8.05967 | 26584 ft | 403 kts | 197° |
| 2026-04-28 10:09 | 32.50412 | -8.06883 | 26023 ft | 401 kts | 197° |
| 2026-04-28 10:10 | 32.44533 | -8.08877 | 24831 ft | 395 kts | 197° |
| 2026-04-28 10:10 | 32.41896 | -8.09767 | 24319 ft | 393 kts | 197° |
| 2026-04-28 10:10 | 32.39275 | -8.10654 | 23808 ft | 391 kts | 197° |
| 2026-04-28 10:10 | 32.36666 | -8.11536 | 23285 ft | 389 kts | 198° |
| 2026-04-28 10:11 | 32.34070 | -8.12414 | 22718 ft | 386 kts | 198° |
| 2026-04-28 10:11 | 32.31496 | -8.13282 | 22222 ft | 383 kts | 198° |
| 2026-04-28 10:11 | 32.28938 | -8.14143 | 21730 ft | 381 kts | 198° |
| 2026-04-28 10:11 | 32.26400 | -8.15000 | 21242 ft | 378 kts | 198° |
| 2026-04-28 10:12 | 32.23883 | -8.15852 | 20771 ft | 375 kts | 198° |
| 2026-04-28 10:12 | 32.21382 | -8.16700 | 20295 ft | 373 kts | 197° |
| 2026-04-28 10:12 | 32.18898 | -8.17538 | 19830 ft | 370 kts | 197° |
| 2026-04-28 10:12 | 32.16428 | -8.18368 | 19375 ft | 367 kts | 197° |
| 2026-04-28 10:13 | 32.13979 | -8.19190 | 18927 ft | 365 kts | 198° |
| 2026-04-28 10:13 | 32.11625 | -8.20268 | 18494 ft | 361 kts | 208° |
| 2026-04-28 10:13 | 32.09459 | -8.21724 | 18189 ft | 354 kts | 211° |
| 2026-04-28 10:13 | 32.07369 | -8.23157 | 18049 ft | 342 kts | 211° |
| 2026-04-28 10:14 | 32.05349 | -8.24543 | 17913 ft | 331 kts | 211° |
| 2026-04-28 10:14 | 32.03390 | -8.25888 | 17703 ft | 322 kts | 211° |
| 2026-04-28 10:14 | 32.01484 | -8.27194 | 17365 ft | 319 kts | 211° |
| 2026-04-28 10:14 | 31.99571 | -8.28500 | 17005 ft | 317 kts | 211° |
| 2026-04-28 10:15 | 31.97665 | -8.29801 | 16629 ft | 315 kts | 211° |
| 2026-04-28 10:15 | 31.95773 | -8.31090 | 16264 ft | 313 kts | 211° |
| 2026-04-28 10:15 | 31.93889 | -8.32370 | 15993 ft | 312 kts | 211° |
| 2026-04-28 10:15 | 31.92012 | -8.33644 | 15880 ft | 310 kts | 211° |
| 2026-04-28 10:16 | 31.90149 | -8.34911 | 15519 ft | 309 kts | 211° |
| 2026-04-28 10:16 | 31.88289 | -8.36176 | 15175 ft | 308 kts | 211° |
| 2026-04-28 10:16 | 31.86439 | -8.37435 | 14833 ft | 306 kts | 211° |
| 2026-04-28 10:16 | 31.84599 | -8.38686 | 14507 ft | 305 kts | 211° |
| 2026-04-28 10:17 | 31.82720 | -8.39830 | 14183 ft | 304 kts | 205° |
| 2026-04-28 10:17 | 31.80785 | -8.40825 | 13871 ft | 303 kts | 205° |
| 2026-04-28 10:17 | 31.78859 | -8.41816 | 13516 ft | 301 kts | 205° |
| 2026-04-28 10:17 | 31.76978 | -8.42782 | 13350 ft | 286 kts | 205° |
| 2026-04-28 10:18 | 31.75211 | -8.43691 | 13227 ft | 268 kts | 205° |
| 2026-04-28 10:18 | 31.73551 | -8.44549 | 12998 ft | 255 kts | 205° |
| 2026-04-28 10:18 | 31.71941 | -8.45378 | 12544 ft | 251 kts | 205° |
| 2026-04-28 10:18 | 31.70348 | -8.46198 | 12061 ft | 249 kts | 204° |
| 2026-04-28 10:19 | 31.68778 | -8.47007 | 11564 ft | 251 kts | 204° |
| 2026-04-28 10:19 | 31.67183 | -8.47827 | 11262 ft | 250 kts | 204° |
| 2026-04-28 10:19 | 31.65591 | -8.48644 | 10948 ft | 250 kts | 204° |
| 2026-04-28 10:19 | 31.63995 | -8.49464 | 10623 ft | 250 kts | 203° |
| 2026-04-28 10:20 | 31.62404 | -8.50280 | 10302 ft | 249 kts | 203° |
| 2026-04-28 10:20 | 31.60815 | -8.51097 | 9975 ft | 249 kts | 204° |
| 2026-04-28 10:20 | 31.59396 | -8.52241 | 9643 ft | 248 kts | 227° |
| 2026-04-28 10:20 | 31.58496 | -8.53942 | 9276 ft | 247 kts | 252° |
| 2026-04-28 10:21 | 31.58270 | -8.55913 | 8940 ft | 244 kts | 275° |
| 2026-04-28 10:21 | 31.58444 | -8.57886 | 8590 ft | 243 kts | 278° |
| 2026-04-28 10:21 | 31.58898 | -8.59768 | 8268 ft | 239 kts | 301° |
| 2026-04-28 10:21 | 31.59988 | -8.61198 | 7936 ft | 236 kts | 326° |
| 2026-04-28 10:22 | 31.61483 | -8.61932 | 7588 ft | 234 kts | 351° |
| 2026-04-28 10:22 | 31.63079 | -8.61839 | 7246 ft | 234 kts | 17° |
| 2026-04-28 10:22 | 31.64494 | -8.60922 | 6887 ft | 235 kts | 43° |
| 2026-04-28 10:22 | 31.65422 | -8.59356 | 6528 ft | 236 kts | 70° |
| 2026-04-28 10:23 | 31.65650 | -8.57480 | 6356 ft | 234 kts | 95° |
| 2026-04-28 10:23 | 31.65481 | -8.55576 | 6225 ft | 232 kts | 98° |
| 2026-04-28 10:23 | 31.65257 | -8.53737 | 6092 ft | 224 kts | 99° |
| 2026-04-28 10:23 | 31.65027 | -8.51986 | 6010 ft | 211 kts | 99° |
| 2026-04-28 10:24 | 31.64806 | -8.50307 | 5877 ft | 206 kts | 99° |
| 2026-04-28 10:24 | 31.64595 | -8.48650 | 5743 ft | 204 kts | 98° |
| 2026-04-28 10:24 | 31.64434 | -8.46994 | 5615 ft | 204 kts | 97° |
| 2026-04-28 10:24 | 31.64294 | -8.45338 | 5490 ft | 204 kts | 97° |
| 2026-04-28 10:25 | 31.64204 | -8.44237 | 5406 ft | 204 kts | 97° |
| 2026-04-28 10:25 | 31.64069 | -8.42578 | 5281 ft | 204 kts | 97° |
| 2026-04-28 10:25 | 31.63932 | -8.40923 | 5171 ft | 203 kts | 96° |
| 2026-04-28 10:25 | 31.63795 | -8.39275 | 5104 ft | 203 kts | 97° |
| 2026-04-28 10:26 | 31.63657 | -8.37626 | 5025 ft | 202 kts | 97° |
| 2026-04-28 10:26 | 31.63518 | -8.35986 | 4949 ft | 202 kts | 97° |
| 2026-04-28 10:26 | 31.63379 | -8.34344 | 4879 ft | 202 kts | 97° |
| 2026-04-28 10:26 | 31.63240 | -8.32711 | 4812 ft | 201 kts | 96° |
| 2026-04-28 10:27 | 31.63101 | -8.31084 | 4728 ft | 201 kts | 97° |
| 2026-04-28 10:27 | 31.62961 | -8.29452 | 4654 ft | 201 kts | 97° |
| 2026-04-28 10:27 | 31.62821 | -8.27818 | 4577 ft | 201 kts | 97° |
| 2026-04-28 10:27 | 31.62680 | -8.26187 | 4505 ft | 201 kts | 97° |
| 2026-04-28 10:28 | 31.62521 | -8.24565 | 4429 ft | 200 kts | 97° |
| 2026-04-28 10:28 | 31.62373 | -8.22943 | 4364 ft | 201 kts | 97° |
| 2026-04-28 10:28 | 31.62230 | -8.21312 | 4164 ft | 201 kts | 97° |
| 2026-04-28 10:29 | 31.61958 | -8.18165 | 3676 ft | 187 kts | 96° |
| 2026-04-28 10:29 | 31.61830 | -8.16693 | 3445 ft | 179 kts | 96° |
| 2026-04-28 10:29 | 31.61704 | -8.15247 | 3209 ft | 177 kts | 96° |
| 2026-04-28 10:29 | 31.61581 | -8.13824 | 2975 ft | 171 kts | 96° |
| 2026-04-28 10:30 | 31.61465 | -8.12492 | 2753 ft | 159 kts | 96° |
| 2026-04-28 10:30 | 31.61354 | -8.11226 | 2540 ft | 154 kts | 96° |
| 2026-04-28 10:30 | 31.61247 | -8.09993 | 2351 ft | 150 kts | 96° |
| 2026-04-28 10:30 | 31.61141 | -8.08782 | 2148 ft | 149 kts | 96° |
| 2026-04-28 10:31 | 31.61035 | -8.07577 | 1952 ft | 148 kts | 96° |
| 2026-04-28 10:31 | 31.60932 | -8.06371 | 1752 ft | 149 kts | 96° |
| 2026-04-28 10:31 | 31.60827 | -8.05173 | 1589 ft | 147 kts | 96° |
| 2026-04-28 10:31 | 31.60728 | -8.04072 | 1535 ft | 116 kts | 96° |
| 2026-04-28 10:32 | 31.60653 | -8.03223 | 1539 ft | 94 kts | 96° |
| 2026-04-28 10:32 | 31.60611 | -8.02748 | 1537 ft | 25 kts | 95° |
| 2026-04-28 10:32 | 31.60590 | -8.02636 | 1532 ft | 10 kts | 146° |
| 2026-04-28 10:32 | 31.60556 | -8.02635 | 1538 ft | 1 kts | 187° |
| 2026-04-28 10:33 | 31.60550 | -8.02636 | 1539 ft | 1 kts | 187° |
| 2026-04-28 10:33 | 31.60533 | -8.02638 | 1541 ft | 6 kts | 187° |
| 2026-04-28 10:33 | 31.60504 | -8.02642 | 1538 ft | 2 kts | 186° |
| 2026-04-28 10:33 | 31.60476 | -8.02645 | 1544 ft | 7 kts | 186° |
| 2026-04-28 10:34 | 31.60428 | -8.02616 | 1543 ft | 11 kts | 106° |
| 2026-04-28 10:34 | 31.60412 | -8.02537 | 1543 ft | 8 kts | 140° |
| 2026-04-28 10:34 | 31.60366 | -8.02538 | 1548 ft | 5 kts | 186° |
| 2026-04-28 10:34 | 31.60326 | -8.02544 | 1544 ft | 6 kts | 186° |
| 2026-04-28 10:35 | 31.60299 | -8.02547 | 1549 ft | 1 kts | 186° |